createdAt,value
2019-02-15T00:00:39.297Z,7.00
2019-02-15T00:03:07.632Z,7.00
2019-02-15T00:05:35.189Z,6.90
2019-02-15T00:08:02.914Z,6.90
2019-02-15T00:10:30.641Z,6.90
2019-02-15T00:12:58.187Z,6.90
2019-02-15T00:15:25.829Z,6.90
2019-02-15T00:18:12.948Z,6.90
2019-02-15T00:20:49.383Z,6.90
2019-02-15T00:23:16.772Z,6.80
2019-02-15T00:25:44.336Z,6.80
2019-02-15T00:28:11.997Z,6.80
2019-02-15T00:30:39.490Z,6.80
2019-02-15T00:33:06.947Z,6.80
2019-02-15T00:35:34.505Z,6.80
2019-02-15T00:38:02.195Z,7.00
2019-02-15T00:40:30.590Z,6.80
2019-02-15T00:42:59.014Z,6.80
2019-02-15T00:45:30.462Z,6.80
2019-02-15T00:48:02.134Z,6.90
2019-02-15T00:50:42.759Z,6.90
2019-02-15T00:53:32.558Z,6.90
2019-02-15T00:56:22.676Z,6.90
2019-02-15T00:59:13.736Z,6.90
2019-02-15T01:02:00.795Z,6.90
2019-02-15T01:04:47.984Z,6.90
2019-02-15T01:07:35.248Z,6.90
2019-02-15T01:10:23.472Z,6.90
2019-02-15T01:12:55.600Z,6.80
2019-02-15T01:15:23.093Z,6.90
2019-02-15T01:17:50.535Z,6.90
2019-02-15T01:20:18.096Z,6.90
2019-02-15T01:22:45.762Z,6.90
2019-02-15T01:25:13.487Z,6.80
2019-02-15T01:27:59.155Z,6.80
2019-02-15T01:31:01.531Z,6.80
2019-02-15T01:33:41.375Z,6.80
2019-02-15T01:36:37.483Z,6.80
2019-02-15T01:39:12.071Z,6.80
2019-02-15T01:42:03.958Z,6.80
2019-02-15T01:44:37.945Z,6.80
2019-02-15T01:47:26.894Z,6.80
2019-02-15T01:49:54.344Z,6.80
2019-02-15T01:52:22.060Z,6.70
2019-02-15T01:54:49.475Z,6.70
2019-02-15T01:57:17.078Z,6.70
2019-02-15T01:59:44.723Z,6.60
2019-02-15T02:02:12.361Z,6.60
2019-02-15T02:04:39.990Z,6.70
2019-02-15T02:07:07.513Z,6.60
2019-02-15T02:09:35.241Z,6.60
2019-02-15T02:12:03.610Z,6.60
2019-02-15T02:14:31.076Z,6.60
2019-02-15T02:16:58.706Z,6.60
2019-02-15T02:19:26.097Z,6.60
2019-02-15T02:21:53.503Z,6.60
2019-02-15T02:24:21.047Z,6.60
2019-02-15T02:26:48.682Z,6.60
2019-02-15T02:29:16.335Z,6.60
2019-02-15T02:31:44.294Z,6.60
2019-02-15T02:34:13.172Z,6.50
2019-02-15T02:36:49.099Z,6.50
2019-02-15T02:39:16.653Z,6.50
2019-02-15T02:41:44.588Z,6.50
2019-02-15T02:44:12.303Z,6.50
2019-02-15T02:46:39.978Z,6.50
2019-02-15T02:49:07.894Z,6.50
2019-02-15T02:51:36.392Z,6.50
2019-02-15T02:54:04.225Z,6.50
2019-02-15T02:56:31.873Z,6.60
2019-02-15T02:58:59.511Z,6.60
2019-02-15T03:01:27.423Z,6.60
2019-02-15T03:03:54.937Z,6.60
2019-02-15T03:06:27.687Z,6.60
2019-02-15T03:08:55.176Z,6.60
2019-02-15T03:11:22.674Z,6.70
2019-02-15T03:13:50.485Z,6.70
2019-02-15T03:16:18.004Z,6.70
2019-02-15T03:18:45.432Z,6.70
2019-02-15T03:21:12.997Z,6.70
2019-02-15T03:23:40.419Z,6.70
2019-02-15T03:26:09.012Z,6.70
2019-02-15T03:28:36.594Z,6.70
2019-02-15T03:31:04.120Z,6.70
2019-02-15T03:33:31.551Z,6.60
2019-02-15T03:36:01.308Z,6.70
2019-02-15T03:38:42.877Z,6.70
2019-02-15T03:41:27.143Z,6.70
2019-02-15T03:43:55.249Z,6.70
2019-02-15T03:46:22.876Z,6.70
2019-02-15T03:48:50.599Z,6.70
2019-02-15T03:51:18.179Z,6.80
2019-02-15T03:53:45.564Z,6.80
2019-02-15T03:56:13.118Z,6.80
2019-02-15T03:58:42.070Z,6.80
2019-02-15T04:01:10.588Z,6.80
2019-02-15T04:03:38.768Z,6.80
2019-02-15T04:06:06.147Z,6.80
2019-02-15T04:08:33.930Z,6.80
2019-02-15T04:11:02.448Z,6.80
2019-02-15T04:13:30.033Z,6.80
2019-02-15T04:15:57.508Z,6.80
2019-02-15T04:18:25.368Z,6.90
2019-02-15T04:20:53.039Z,6.80
2019-02-15T04:23:20.519Z,6.80
2019-02-15T04:25:48.165Z,6.80
2019-02-15T04:28:15.813Z,6.70
2019-02-15T04:30:43.439Z,6.80
2019-02-15T04:33:10.988Z,6.80
2019-02-15T04:35:38.436Z,6.80
2019-02-15T04:38:07.026Z,6.80
2019-02-15T04:40:34.651Z,6.80
2019-02-15T04:43:02.398Z,6.80
2019-02-15T04:45:30.720Z,6.80
2019-02-15T04:47:58.235Z,6.70
2019-02-15T04:50:25.643Z,6.70
2019-02-15T04:52:53.025Z,6.70
2019-02-15T04:55:20.566Z,6.70
2019-02-15T04:57:48.257Z,6.70
2019-02-15T05:00:15.895Z,6.70
2019-02-15T05:02:43.457Z,6.70
2019-02-15T05:05:11.898Z,6.70
2019-02-15T05:07:39.425Z,6.70
2019-02-15T05:10:06.985Z,6.70
2019-02-15T05:12:34.708Z,6.70
2019-02-15T05:15:02.244Z,6.70
2019-02-15T05:17:29.613Z,6.70
2019-02-15T05:19:57.220Z,6.70
2019-02-15T05:22:25.109Z,6.60
2019-02-15T05:24:52.497Z,6.60
2019-02-15T05:27:21.104Z,6.60
2019-02-15T05:29:50.614Z,6.60
2019-02-15T05:32:18.162Z,6.60
2019-02-15T05:34:45.556Z,6.60
2019-02-15T05:37:13.203Z,6.60
2019-02-15T05:39:40.782Z,6.60
2019-02-15T05:42:08.404Z,6.60
2019-02-15T05:44:35.895Z,6.60
2019-02-15T05:47:03.425Z,6.60
2019-02-15T05:49:31.013Z,6.60
2019-02-15T05:51:58.384Z,6.50
2019-02-15T05:54:25.798Z,6.50
2019-02-15T05:56:53.268Z,6.50
2019-02-15T05:59:20.695Z,6.50
2019-02-15T06:01:48.080Z,6.50
2019-02-15T06:04:15.624Z,6.50
2019-02-15T06:06:43.140Z,6.50
2019-02-15T06:09:10.616Z,6.50
2019-02-15T06:11:38.100Z,6.50
2019-02-15T06:14:07.345Z,6.50
2019-02-15T06:16:34.827Z,6.50
2019-02-15T06:19:02.514Z,6.50
2019-02-15T06:21:30.196Z,6.50
2019-02-15T06:23:57.883Z,6.50
2019-02-15T06:26:25.478Z,6.60
2019-02-15T06:28:53.090Z,6.60
2019-02-15T06:31:20.669Z,6.60
2019-02-15T06:33:48.205Z,6.60
2019-02-15T06:36:15.877Z,6.60
2019-02-15T06:38:43.639Z,6.60
2019-02-15T06:41:12.633Z,6.60
2019-02-15T06:43:40.031Z,6.70
2019-02-15T06:46:07.519Z,6.70
2019-02-15T06:48:35.070Z,6.70
2019-02-15T06:51:02.704Z,6.70
2019-02-15T06:53:30.143Z,6.70
2019-02-15T06:55:57.608Z,6.70
2019-02-15T06:58:25.113Z,6.70
2019-02-15T07:01:19.720Z,6.70
2019-02-15T07:04:12.791Z,6.70
2019-02-15T07:06:40.339Z,6.90
2019-02-15T07:09:07.876Z,6.70
2019-02-15T07:11:35.315Z,6.80
2019-02-15T07:14:02.815Z,6.80
2019-02-15T07:16:30.423Z,6.80
2019-02-15T07:18:57.945Z,6.80
2019-02-15T07:21:26.324Z,6.70
2019-02-15T07:23:53.715Z,6.80
2019-02-15T07:26:21.281Z,6.80
2019-02-15T07:28:48.983Z,6.80
2019-02-15T07:31:16.613Z,6.80
2019-02-15T07:33:44.002Z,6.90
2019-02-15T07:36:11.406Z,6.90
2019-02-15T07:38:38.798Z,6.90
2019-02-15T07:41:06.306Z,6.90
2019-02-15T07:43:33.681Z,7.00
2019-02-15T07:46:01.248Z,7.00
2019-02-15T07:48:28.754Z,7.10
2019-02-15T07:50:56.307Z,7.10
2019-02-15T07:53:23.737Z,7.20
2019-02-15T07:55:51.263Z,7.20
2019-02-15T07:58:19.290Z,7.20
2019-02-15T08:00:46.704Z,7.30
2019-02-15T08:03:14.093Z,7.30
2019-02-15T08:05:41.458Z,7.30
2019-02-15T08:08:09.060Z,7.30
2019-02-15T08:10:36.673Z,7.30
2019-02-15T08:13:04.069Z,7.40
2019-02-15T08:15:36.325Z,7.30
2019-02-15T08:18:01.572Z,7.40
2019-02-15T08:20:29.393Z,7.50
2019-02-15T08:22:58.667Z,7.50
2019-02-15T08:25:27.073Z,7.60
2019-02-15T08:27:55.047Z,7.70
2019-02-15T08:30:22.815Z,7.70
2019-02-15T08:32:50.411Z,7.70
2019-02-15T08:35:18.078Z,7.70
2019-02-15T08:37:45.515Z,7.80
2019-02-15T08:40:15.235Z,7.80
2019-02-15T08:42:43.639Z,7.80
2019-02-15T08:45:14.109Z,7.80
2019-02-15T08:47:42.787Z,7.90
2019-02-15T08:50:11.128Z,8.00
2019-02-15T08:52:38.896Z,8.10
2019-02-15T08:55:07.682Z,8.20
2019-02-15T08:57:35.096Z,8.20
2019-02-15T09:00:02.947Z,8.20
2019-02-15T09:02:30.441Z,8.20
2019-02-15T09:04:58.100Z,8.30
2019-02-15T09:07:25.683Z,8.30
2019-02-15T09:09:53.073Z,8.40
2019-02-15T09:12:20.436Z,8.60
2019-02-15T09:14:48.118Z,8.60
2019-02-15T09:17:15.716Z,8.50
2019-02-15T09:19:45.054Z,8.50
2019-02-15T09:22:12.575Z,8.50
2019-02-15T09:24:40.750Z,8.50
2019-02-15T09:27:41.379Z,8.50
2019-02-15T09:30:11.401Z,8.60
2019-02-15T09:32:38.980Z,8.60
2019-02-15T09:35:07.682Z,8.70
2019-02-15T09:37:35.248Z,8.70
2019-02-15T09:40:03.082Z,8.70
2019-02-15T09:42:30.808Z,8.80
2019-02-15T09:44:58.401Z,8.80
2019-02-15T09:47:25.789Z,8.80
2019-02-15T09:49:53.390Z,8.70
2019-02-15T09:52:21.138Z,8.60
2019-02-15T09:54:48.830Z,8.60
2019-02-15T09:57:16.433Z,8.70
2019-02-15T09:59:44.512Z,8.70
2019-02-15T10:02:12.169Z,8.70
2019-02-15T10:04:39.586Z,8.70
2019-02-15T10:07:07.140Z,8.80
2019-02-15T10:09:34.799Z,8.80
2019-02-15T10:12:03.650Z,8.80
2019-02-15T10:14:31.187Z,8.90
2019-02-15T10:16:58.582Z,8.90
2019-02-15T10:19:27.025Z,9.00
2019-02-15T10:21:54.685Z,9.10
2019-02-15T10:24:22.954Z,9.00
2019-02-15T10:26:50.792Z,9.10
2019-02-15T10:29:18.761Z,9.20
2019-02-15T10:31:46.176Z,9.20
2019-02-15T10:34:13.801Z,9.30
2019-02-15T10:36:41.621Z,9.40
2019-02-15T10:39:09.095Z,9.50
2019-02-15T10:41:36.630Z,9.60
2019-02-15T10:44:04.417Z,9.70
2019-02-15T10:46:37.683Z,9.70
2019-02-15T10:49:01.339Z,9.80
2019-02-15T10:51:28.835Z,9.80
2019-02-15T10:53:56.305Z,9.80
2019-02-15T10:56:24.049Z,9.80
2019-02-15T10:58:51.597Z,9.90
2019-02-15T11:01:19.054Z,10.00
2019-02-15T11:03:46.719Z,10.10
2019-02-15T11:06:14.094Z,10.10
2019-02-15T11:08:41.679Z,10.20
2019-02-15T11:11:09.206Z,10.40
2019-02-15T11:13:36.737Z,10.50
2019-02-15T11:16:04.294Z,10.80
2019-02-15T11:18:31.764Z,11.00
2019-02-15T11:20:59.229Z,11.40
2019-02-15T11:23:26.843Z,11.70
2019-02-15T11:25:54.352Z,12.00
2019-02-15T11:28:21.950Z,12.50
2019-02-15T11:30:49.418Z,13.60
2019-02-15T11:33:16.933Z,15.30
2019-02-15T11:35:44.525Z,16.70
2019-02-15T11:38:12.165Z,17.60
2019-02-15T11:40:39.763Z,17.80
2019-02-15T11:43:07.274Z,17.90
2019-02-15T11:45:34.688Z,18.80
2019-02-15T11:48:02.044Z,19.90
2019-02-15T11:50:29.528Z,20.80
2019-02-15T11:52:56.952Z,22.70
2019-02-15T11:55:24.385Z,24.30
2019-02-15T11:57:52.247Z,25.60
2019-02-15T12:00:25.350Z,26.20
2019-02-15T12:02:52.940Z,25.30
2019-02-15T12:05:20.376Z,23.60
2019-02-15T12:07:49.917Z,21.70
2019-02-15T12:10:17.407Z,19.80
2019-02-15T12:12:44.967Z,18.40
2019-02-15T12:15:12.561Z,18.10
2019-02-15T12:17:39.976Z,18.10
2019-02-15T12:20:08.494Z,17.60
2019-02-15T12:22:37.453Z,16.90
2019-02-15T12:25:05.108Z,16.10
2019-02-15T12:27:32.588Z,15.50
2019-02-15T12:30:02.359Z,15.20
2019-02-15T12:32:30.171Z,15.10
2019-02-15T12:34:59.576Z,15.10
2019-02-15T12:37:27.339Z,16.90
2019-02-15T12:39:55.582Z,18.10
2019-02-15T12:42:24.336Z,18.00
2019-02-15T12:44:51.795Z,17.60
2019-02-15T12:47:19.431Z,17.60
2019-02-15T12:49:46.798Z,19.20
2019-02-15T12:52:14.626Z,21.50
2019-02-15T12:54:42.271Z,21.90
2019-02-15T12:57:09.816Z,20.80
2019-02-15T12:59:37.215Z,20.30
2019-02-15T13:02:04.664Z,21.40
2019-02-15T13:04:31.999Z,23.60
2019-02-15T13:06:59.338Z,25.30
2019-02-15T13:09:26.784Z,25.90
2019-02-15T13:11:54.224Z,27.20
2019-02-15T13:14:21.685Z,28.30
2019-02-15T13:16:49.958Z,29.10
2019-02-15T13:19:17.603Z,29.60
2019-02-15T13:21:45.523Z,29.70
2019-02-15T13:24:13.890Z,30.10
2019-02-15T13:26:41.907Z,30.80
2019-02-15T13:29:09.430Z,31.10
2019-02-15T13:31:37.462Z,31.40
2019-02-15T13:34:04.844Z,31.20
2019-02-15T13:36:32.441Z,31.10
2019-02-15T13:39:00.280Z,31.40
2019-02-15T13:41:28.557Z,31.30
2019-02-15T13:43:55.907Z,30.80
2019-02-15T13:46:24.060Z,30.40
2019-02-15T13:48:53.455Z,30.40
2019-02-15T13:51:21.193Z,29.90
2019-02-15T13:53:48.597Z,29.80
2019-02-15T13:56:16.088Z,28.70
2019-02-15T13:58:43.723Z,28.10
2019-02-15T14:01:11.195Z,28.00
2019-02-15T14:03:38.921Z,27.70
2019-02-15T14:06:07.538Z,27.00
2019-02-15T14:08:35.004Z,26.40
2019-02-15T14:11:02.432Z,26.20
2019-02-15T14:13:29.842Z,25.70
2019-02-15T14:15:57.171Z,24.80
2019-02-15T14:18:24.609Z,24.00
2019-02-15T14:20:52.594Z,23.50
2019-02-15T14:23:20.131Z,22.80
2019-02-15T14:25:47.681Z,22.10
2019-02-15T14:28:15.094Z,21.80
2019-02-15T14:30:42.597Z,21.50
2019-02-15T14:33:10.073Z,21.10
2019-02-15T14:35:37.463Z,21.10
2019-02-15T14:38:05.132Z,21.10
2019-02-15T14:40:32.606Z,21.30
2019-02-15T14:43:00.144Z,20.90
2019-02-15T14:45:28.093Z,20.80
2019-02-15T14:47:56.147Z,20.60
2019-02-15T14:50:24.199Z,20.50
2019-02-15T14:52:52.935Z,20.40
2019-02-15T14:55:20.333Z,20.10
2019-02-15T14:57:49.964Z,19.80
2019-02-15T15:00:19.895Z,19.30
2019-02-15T15:02:47.522Z,18.60
2019-02-15T15:05:14.949Z,17.80
2019-02-15T15:07:42.406Z,17.00
2019-02-15T15:10:12.016Z,16.20
2019-02-15T15:12:39.665Z,15.40
2019-02-15T15:15:09.131Z,14.80
2019-02-15T15:17:37.580Z,14.30
2019-02-15T15:20:08.644Z,13.80
2019-02-15T15:22:36.217Z,13.40
2019-02-15T15:25:04.258Z,12.90
2019-02-15T15:27:31.900Z,12.50
2019-02-15T15:29:59.796Z,12.30
2019-02-15T15:32:27.162Z,11.90
2019-02-15T15:34:56.637Z,11.70
2019-02-15T15:37:26.206Z,11.40
2019-02-15T15:40:00.536Z,11.10
2019-02-15T15:42:28.821Z,10.80
2019-02-15T15:44:56.450Z,10.50
2019-02-15T15:47:23.828Z,10.20
2019-02-15T15:49:51.794Z,10.00
2019-02-15T15:52:19.152Z,9.80
2019-02-15T15:54:46.532Z,9.60
2019-02-15T15:57:13.960Z,9.30
2019-02-15T15:59:42.211Z,9.10
2019-02-15T16:02:09.697Z,8.90
2019-02-15T16:04:37.138Z,8.70
2019-02-15T16:07:05.204Z,8.40
2019-02-15T16:09:32.662Z,8.20
2019-02-15T16:12:00.165Z,8.00
2019-02-15T16:14:28.276Z,7.80
2019-02-15T16:16:55.981Z,7.50
2019-02-15T16:19:23.914Z,7.40
2019-02-15T16:21:51.575Z,7.20
2019-02-15T16:24:19.584Z,7.00
2019-02-15T16:26:47.797Z,6.80
2019-02-15T16:29:16.160Z,6.70
2019-02-15T16:31:43.742Z,6.50
2019-02-15T16:34:12.394Z,6.30
2019-02-15T16:36:40.136Z,6.10
2019-02-15T16:39:08.985Z,6.00
2019-02-15T16:41:36.748Z,5.80
2019-02-15T16:44:04.115Z,5.70
2019-02-15T16:46:31.526Z,5.50
2019-02-15T16:48:58.879Z,5.40
2019-02-15T16:51:27.122Z,5.30
2019-02-15T16:53:54.618Z,5.20
2019-02-15T16:56:22.790Z,5.20
2019-02-15T16:58:50.656Z,5.10
2019-02-15T17:01:18.011Z,5.10
2019-02-15T17:03:45.644Z,5.00
2019-02-15T17:06:13.600Z,5.00
2019-02-15T17:08:42.016Z,4.90
2019-02-15T17:11:10.124Z,4.80
2019-02-15T17:13:37.514Z,4.80
2019-02-15T17:16:05.114Z,4.70
2019-02-15T17:18:32.521Z,4.60
2019-02-15T17:20:59.930Z,4.50
2019-02-15T17:23:27.366Z,4.50
2019-02-15T17:25:54.704Z,4.40
2019-02-15T17:28:22.197Z,4.40
2019-02-15T17:30:49.583Z,4.40
2019-02-15T17:33:17.000Z,4.40
2019-02-15T17:35:44.878Z,4.40
2019-02-15T17:38:12.376Z,4.40
2019-02-15T17:40:40.905Z,4.30
2019-02-15T17:43:08.473Z,4.30
2019-02-15T17:45:37.207Z,4.30
2019-02-15T17:48:04.746Z,4.40
2019-02-15T17:50:32.120Z,4.20
2019-02-15T17:52:59.512Z,4.20
2019-02-15T17:55:26.981Z,4.20
2019-02-15T17:57:54.367Z,4.20
2019-02-15T18:00:26.046Z,4.10
2019-02-15T18:02:53.836Z,4.10
2019-02-15T18:05:21.349Z,4.10
2019-02-15T18:07:48.898Z,4.10
2019-02-15T18:10:16.502Z,4.00
2019-02-15T18:12:45.262Z,4.00
2019-02-15T18:15:13.692Z,3.90
2019-02-15T18:17:41.110Z,3.80
2019-02-15T18:20:09.949Z,3.70
2019-02-15T18:22:37.769Z,3.60
2019-02-15T18:25:05.704Z,3.60
2019-02-15T18:27:33.487Z,3.50
2019-02-15T18:30:01.094Z,3.40
2019-02-15T18:32:28.684Z,3.40
2019-02-15T18:34:56.308Z,3.30
2019-02-15T18:37:24.104Z,3.30
2019-02-15T18:39:51.710Z,3.30
2019-02-15T18:42:19.274Z,3.30
2019-02-15T18:44:46.901Z,3.20
2019-02-15T18:47:14.405Z,3.20
2019-02-15T18:49:42.733Z,3.20
2019-02-15T18:52:10.734Z,3.20
2019-02-15T18:54:38.190Z,3.30
2019-02-15T18:57:06.219Z,3.30
2019-02-15T18:59:34.059Z,3.30
2019-02-15T19:02:01.522Z,3.30
2019-02-15T19:04:29.853Z,3.30
2019-02-15T19:06:57.643Z,3.30
2019-02-15T19:09:26.224Z,3.30
2019-02-15T19:11:53.718Z,3.30
2019-02-15T19:14:21.637Z,3.30
2019-02-15T19:16:49.368Z,3.30
2019-02-15T19:19:17.696Z,3.20
2019-02-15T19:21:47.535Z,3.20
2019-02-15T19:24:18.038Z,3.20
2019-02-15T19:26:45.637Z,3.20
2019-02-15T19:29:14.573Z,3.10
2019-02-15T19:31:42.340Z,3.10
2019-02-15T19:34:12.290Z,3.10
2019-02-15T19:36:39.753Z,3.10
2019-02-15T19:39:08.300Z,3.00
2019-02-15T19:41:35.901Z,3.00
2019-02-15T19:44:03.473Z,3.00
2019-02-15T19:46:32.223Z,2.90
2019-02-15T19:48:59.785Z,2.90
2019-02-15T19:51:27.358Z,2.80
2019-02-15T19:53:55.277Z,2.80
2019-02-15T19:56:23.058Z,2.70
2019-02-15T19:58:50.780Z,2.70
2019-02-15T20:01:19.425Z,2.70
2019-02-15T20:03:46.846Z,2.70
2019-02-15T20:06:14.711Z,2.60
2019-02-15T20:08:42.332Z,2.60
2019-02-15T20:11:10.041Z,2.60
2019-02-15T20:13:37.639Z,2.50
2019-02-15T20:16:05.429Z,2.50
2019-02-15T20:18:33.423Z,2.40
2019-02-15T20:21:01.146Z,2.40
2019-02-15T20:23:28.643Z,2.30
2019-02-15T20:25:56.106Z,2.20
2019-02-15T20:28:24.610Z,2.20
2019-02-15T20:30:54.090Z,2.20
2019-02-15T20:33:22.391Z,2.20
2019-02-15T20:35:50.782Z,2.10
2019-02-15T20:38:19.708Z,2.10
2019-02-15T20:40:47.367Z,2.10
2019-02-15T20:43:14.891Z,2.10
2019-02-15T20:45:42.445Z,2.10
2019-02-15T20:48:12.335Z,2.10
2019-02-15T20:50:40.501Z,2.00
2019-02-15T20:53:10.908Z,2.20
2019-02-15T20:55:39.610Z,2.00
2019-02-15T20:58:10.784Z,2.00
2019-02-15T21:00:40.271Z,2.00
2019-02-15T21:03:07.882Z,1.90
2019-02-15T21:05:35.728Z,1.90
2019-02-15T21:08:04.344Z,1.90
2019-02-15T21:10:31.772Z,1.90
2019-02-15T21:12:59.661Z,1.90
2019-02-15T21:15:28.448Z,1.80
2019-02-15T21:17:56.597Z,1.70
2019-02-15T21:20:27.345Z,1.80
2019-02-15T21:22:54.812Z,1.70
2019-02-15T21:25:22.343Z,1.60
2019-02-15T21:27:50.718Z,1.70
2019-02-15T21:30:18.719Z,1.60
2019-02-15T21:32:47.270Z,1.60
2019-02-15T21:35:15.963Z,1.60
2019-02-15T21:37:44.365Z,1.60
2019-02-15T21:40:13.356Z,1.50
2019-02-15T21:42:44.566Z,1.50
2019-02-15T21:45:12.893Z,1.50
2019-02-15T21:47:40.674Z,1.50
2019-02-15T21:50:16.681Z,1.50
2019-02-15T21:52:44.279Z,1.50
2019-02-15T21:55:07.888Z,1.40
2019-02-15T21:57:36.686Z,1.50
2019-02-15T22:00:09.250Z,1.40
2019-02-15T22:02:38.689Z,1.50
2019-02-15T22:05:06.270Z,1.50
2019-02-15T22:07:34.184Z,1.50
2019-02-15T22:10:02.284Z,1.50
2019-02-15T22:12:29.882Z,1.50
2019-02-15T22:14:57.282Z,1.50
2019-02-15T22:17:24.702Z,1.40
2019-02-15T22:19:52.216Z,1.40
2019-02-15T22:22:19.605Z,1.40
2019-02-15T22:24:47.123Z,1.40
2019-02-15T22:27:14.729Z,1.40
2019-02-15T22:29:42.308Z,1.30
2019-02-15T22:32:09.743Z,1.30
2019-02-15T22:34:37.472Z,1.30
2019-02-15T22:37:05.018Z,1.30
2019-02-15T22:39:32.661Z,1.20
2019-02-15T22:42:02.027Z,1.20
2019-02-15T22:44:29.715Z,1.20
2019-02-15T22:46:57.384Z,1.30
2019-02-15T22:49:25.336Z,1.20
2019-02-15T22:51:52.845Z,1.20
2019-02-15T22:54:20.298Z,1.10
2019-02-15T22:56:48.402Z,1.10
2019-02-15T22:59:15.790Z,1.10
2019-02-15T23:01:43.595Z,1.10
2019-02-15T23:04:12.422Z,1.20
2019-02-15T23:06:39.970Z,1.10
2019-02-15T23:09:19.335Z,1.10
2019-02-15T23:11:46.767Z,1.00
2019-02-15T23:14:14.261Z,1.00
2019-02-15T23:16:43.797Z,0.90
2019-02-15T23:19:11.872Z,0.80
2019-02-15T23:21:39.271Z,0.80
2019-02-15T23:24:06.779Z,0.80
2019-02-15T23:26:35.696Z,0.80
2019-02-15T23:29:04.293Z,0.70
2019-02-15T23:31:31.816Z,0.70
2019-02-15T23:33:59.395Z,0.80
2019-02-15T23:36:27.320Z,0.80
2019-02-15T23:38:54.688Z,0.80
2019-02-15T23:41:23.212Z,0.80
2019-02-15T23:43:50.809Z,0.70
2019-02-15T23:46:18.534Z,0.70
2019-02-15T23:48:46.345Z,0.70
2019-02-15T23:51:14.528Z,0.70
2019-02-15T23:53:42.247Z,0.70
2019-02-15T23:56:09.925Z,0.70
2019-02-15T23:58:37.550Z,0.70
